DABC/CZL METAR and TAF weather

Enter ICAO airport designator
Station Type Date Time Source
DABC METAR 2018/04/20 08:30 UTC NOAA

DABC 200830Z 17004KT 120V220 9999 FEW010 SCT026 17/13 Q1022


Station Type Date Time Source
DABC Decoded METAR 2018/04/20 08:30 UTC NOAA

Constantine, Algeria (DABC) 36-17N 006-37E 694M
Apr 20, 2018 - 04:30 AM EDT / 2018.04.20 0830 UTC
Wind: from the S (170 degrees) at 5 MPH (4 KT) (direction variable):0
Visibility: greater than 7 mile(s):0
Sky conditions: partly cloudy
Temperature: 62 F (17 C)
Dew Point: 55 F (13 C)
Relative Humidity: 77%
Pressure (altimeter): 30.18 in. Hg (1022 hPa)
ob: DABC 200830Z 17004KT 120V220 9999 FEW010 SCT026 17/13 Q1022
cycle: 8

Station Type Date Time Source
DABC TAF 2018/04/20 06:35 UTC NOAA

TAF DABC 200500Z 2006/2106 14008KT 8000 SCT030
TEMPO 2006/2009 2000 BR BKN008 PROB40
TEMPO 2006/2008 0300 FG
BECMG 2010/2012 05013KT PROB40
TEMPO 2012/2021 3000 TSRA BKN015 FEW023CB
BECMG 2020/2023 35008KT


Example: see airport list